Airfield :
LOGIN :

Register | Disclaimer

   EN    FR    IT 

 










Legend :    VFR   Marginal VFR   IFR   Intensive IFR   Very Intensive IFR
Visi :
Ceiling :
>= 8 km
>= 3000ft
5 to 8 km
1000 to 3000 ft
1500m to 5 km
500 to 1000 ft
800 to 1500m
200 to 500 ft
< 800m
< 200 ft
Symbols :   Thunderstorms  Fog  Heavy snow  Heavy precipitations  Wind > 20 kt
SIGMETs :     Misc.  Thunderstorms  Icing  Turbulence  Mountain Waves  Volcanic Ashes







- Airport Elevation : 17 ft
- IATA code : MPL
- Download approach charts


LFMT - Montpellier Méditerranée

CURRENT METAR :
  • 251430Z AUTO 21008KT CAVOK 20/15 Q1017 TEMPO SHRA SCT050TCU

EXPIRED METARs :
  • 251400Z AUTO 21009KT 9999 ///TCU 19/14 Q1018 TEMPO SHRA NSC
  • 251330Z AUTO 21007KT 9999 ///TCU 19/15 Q1018 TEMPO SHRA NSC
  • 251300Z AUTO 21009KT 9999 FEW043/// SCT110/// BKN130/// ///TCU 19/16 Q1018 BECMG NSC
  • 251230Z AUTO 21007KT 8000 -RA FEW045/// OVC100/// ///TCU 19/16 Q1018 BECMG NSC
  • 251200Z AUTO 15004KT CAVOK 20/15 Q1017 NOSIG

TAF TAF LFMT
Valid from the 25 at 15:00 until the 26 at 15:00 UTC


251400Z 2515/2615 VRB05KT CAVOK
PROB30
TEMPO 2515/2518 SHRA SCT050TCU
BECMG 2612/2614 18010KT
ATIS : +33 4 67 13 11 70
No reported NOTAMs for that airfield.
1 SIGMET reported for the Marseille FIR (LFMM) :
 
Embedded thunderstorms
LFMM SIGMET 4 VALID 251300/251500 LFPW
LFMM MARSEILLE FIR/UIR EMBD TS OBS WI N4215 E00315 - N4215 E00230 - N4300 E00230 - N4300 E00300 TOP FL350 MOV E 10KT NC=



MET'MAP, your aeronautical weather chart ! - Copyright ORBIFLY December 2007 - Disclaimer

ORBIFLY MET'MAP TEAM :

Programming & Development : Alexandra Zaïnal
Concept & Development : Baudouin d'Aumeries
Co-Development & Prog : Marc-Olivier Méhu
Technical & hardware support : Manuel Goepfert

Contact : metmap@orbifly.com




SOURCES & CREDITS :

   NOAA